Terminal Aerodrome Forecast
Issued by NWS Central Illinois

Home | Current Version | Previous Version | Text Only | Print | Product List | Glossary On
Versions: 1 2 3 4 5 6 7 8 9 10 11 12 13 14 15 16 17 18 19 20 21
000
FTUS43 KILX 041138
TAFPIA
TAF
KPIA 041138Z 0412/0512 22008KT P6SM VCTS BKN060CB
      TEMPO 0412/0414 2SM TSRA BR OVC035CB
     FM050000 VRB05KT P6SM VCTS BKN050CB=

USA.gov is the U.S. government's official web portal to all federal, state and local government web resources and services.